createdAt,value
2019-03-30T00:01:09.059Z,8.20
2019-03-30T00:03:37.521Z,7.97
2019-03-30T00:06:06.114Z,7.87
2019-03-30T00:08:34.567Z,9.57
2019-03-30T00:11:03.393Z,8.97
2019-03-30T00:13:32.119Z,8.27
2019-03-30T00:16:00.612Z,9.03
2019-03-30T00:18:29.061Z,8.80
2019-03-30T00:20:57.565Z,7.50
2019-03-30T00:23:26.026Z,7.97
2019-03-30T00:25:54.505Z,9.17
2019-03-30T00:28:23.070Z,9.67
2019-03-30T00:30:51.524Z,8.67
2019-03-30T00:33:20.005Z,8.60
2019-03-30T00:35:48.455Z,8.43
2019-03-30T00:38:16.977Z,9.57
2019-03-30T00:40:45.431Z,9.97
2019-03-30T00:43:13.880Z,9.80
2019-03-30T00:45:42.621Z,7.60
2019-03-30T00:48:11.065Z,8.57
2019-03-30T00:50:39.509Z,8.63
2019-03-30T00:53:08.003Z,8.80
2019-03-30T00:55:36.582Z,8.87
2019-03-30T00:58:05.116Z,8.87
2019-03-30T01:00:33.830Z,10.00
2019-03-30T01:03:02.326Z,8.90
2019-03-30T01:05:30.788Z,7.80
2019-03-30T01:07:59.316Z,8.07
2019-03-30T01:10:27.803Z,6.87
2019-03-30T01:12:56.302Z,7.73
2019-03-30T01:15:24.760Z,9.00
2019-03-30T01:17:53.216Z,8.33
2019-03-30T01:20:22.037Z,8.67
2019-03-30T01:22:50.505Z,8.53
2019-03-30T01:25:19.028Z,8.47
2019-03-30T01:27:47.522Z,7.83
2019-03-30T01:30:22.884Z,7.77
2019-03-30T01:32:46.317Z,8.48
2019-03-30T01:35:15.197Z,9.10
2019-03-30T01:37:43.730Z,9.37
2019-03-30T01:40:12.395Z,8.00
2019-03-30T01:42:40.884Z,8.57
2019-03-30T01:45:09.865Z,9.27
2019-03-30T01:47:38.387Z,7.67
2019-03-30T01:50:17.026Z,8.90
2019-03-30T01:52:39.457Z,7.30
2019-03-30T01:55:08.890Z,7.73
2019-03-30T01:57:37.345Z,9.23
2019-03-30T02:00:10.604Z,6.73
2019-03-30T02:02:39.086Z,8.43
2019-03-30T02:05:07.848Z,8.73
2019-03-30T02:07:36.306Z,8.57
2019-03-30T02:10:06.672Z,7.97
2019-03-30T02:12:35.795Z,7.90
2019-03-30T02:15:05.807Z,8.17
2019-03-30T02:17:34.252Z,7.72
2019-03-30T02:20:03.344Z,7.10
2019-03-30T02:22:31.776Z,7.00
2019-03-30T02:25:00.352Z,9.60
2019-03-30T02:27:28.960Z,8.80
2019-03-30T02:29:57.727Z,9.00
2019-03-30T02:32:26.162Z,9.43
2019-03-30T02:34:54.604Z,9.17
2019-03-30T02:37:23.087Z,9.13
2019-03-30T02:39:51.525Z,8.40
2019-03-30T02:42:20.000Z,8.50
2019-03-30T02:44:48.517Z,9.63
2019-03-30T02:47:17.043Z,8.13
2019-03-30T02:49:45.496Z,9.73
2019-03-30T02:52:14.181Z,9.13
2019-03-30T02:54:42.797Z,9.83
2019-03-30T02:57:11.351Z,8.80
2019-03-30T02:59:39.889Z,9.37
2019-03-30T03:02:08.409Z,10.40
2019-03-30T03:04:36.853Z,10.27
2019-03-30T03:07:05.324Z,8.90
2019-03-30T03:09:33.782Z,9.37
2019-03-30T03:12:02.342Z,10.03
2019-03-30T03:14:31.289Z,9.40
2019-03-30T03:16:59.803Z,10.17
2019-03-30T03:19:28.296Z,9.33
2019-03-30T03:21:56.779Z,8.93
2019-03-30T03:24:25.407Z,9.00
2019-03-30T03:26:53.941Z,7.93
2019-03-30T03:29:22.694Z,9.10
2019-03-30T03:31:51.134Z,9.30
2019-03-30T03:34:19.573Z,9.90
2019-03-30T03:36:48.270Z,10.23
2019-03-30T03:39:16.709Z,8.83
2019-03-30T03:41:45.152Z,10.87
2019-03-30T03:44:13.910Z,9.40
2019-03-30T03:46:42.374Z,10.07
2019-03-30T03:49:10.813Z,9.37
2019-03-30T03:51:39.301Z,10.73
2019-03-30T03:54:07.808Z,9.20
2019-03-30T03:56:38.406Z,10.03
2019-03-30T03:59:07.882Z,8.50
2019-03-30T04:01:37.081Z,10.40
2019-03-30T04:04:08.478Z,8.83
2019-03-30T04:06:39.053Z,9.97
2019-03-30T04:09:07.732Z,10.77
2019-03-30T04:11:39.526Z,12.57
2019-03-30T04:14:10.965Z,8.97
2019-03-30T04:16:41.639Z,10.17
2019-03-30T04:19:10.286Z,9.23
2019-03-30T04:21:59.885Z,8.77
2019-03-30T04:24:28.402Z,10.75
2019-03-30T04:26:56.867Z,10.20
2019-03-30T04:29:25.424Z,8.97
2019-03-30T04:31:53.955Z,10.40
2019-03-30T04:34:22.468Z,9.77
2019-03-30T04:36:50.912Z,8.57
2019-03-30T04:39:19.420Z,8.13
2019-03-30T04:41:47.905Z,8.63
2019-03-30T04:44:16.349Z,8.90
2019-03-30T04:46:44.836Z,8.40
2019-03-30T04:49:13.272Z,9.33
2019-03-30T04:51:41.711Z,8.43
2019-03-30T04:54:10.371Z,9.87
2019-03-30T04:56:38.815Z,8.50
2019-03-30T04:59:07.252Z,8.47
2019-03-30T05:01:35.798Z,9.30
2019-03-30T05:04:04.263Z,10.00
2019-03-30T05:06:32.761Z,9.63
2019-03-30T05:09:01.205Z,7.90
2019-03-30T05:11:29.645Z,10.47
2019-03-30T05:13:58.173Z,10.60
2019-03-30T05:16:26.610Z,8.07
2019-03-30T05:18:55.057Z,10.37
2019-03-30T05:21:23.539Z,9.17
2019-03-30T05:23:52.277Z,9.50
2019-03-30T05:26:20.704Z,8.10
2019-03-30T05:28:49.205Z,8.47
2019-03-30T05:31:17.648Z,7.83
2019-03-30T05:33:46.084Z,9.03
2019-03-30T05:36:14.572Z,9.37
2019-03-30T05:38:43.015Z,9.53
2019-03-30T05:41:11.504Z,10.30
2019-03-30T05:43:40.019Z,9.93
2019-03-30T05:46:08.463Z,9.20
2019-03-30T05:48:36.903Z,10.87
2019-03-30T05:51:05.381Z,9.03
2019-03-30T05:53:33.892Z,10.80
2019-03-30T05:56:02.328Z,8.87
2019-03-30T05:58:30.772Z,10.47
2019-03-30T06:00:59.258Z,10.27
2019-03-30T06:03:27.751Z,10.17
2019-03-30T06:05:56.193Z,11.93
2019-03-30T06:08:24.644Z,11.50
2019-03-30T06:10:53.124Z,12.20
2019-03-30T06:13:21.579Z,11.63
2019-03-30T06:15:50.054Z,14.57
2019-03-30T06:18:18.511Z,14.07
2019-03-30T06:20:46.984Z,14.40
2019-03-30T06:23:15.470Z,13.67
2019-03-30T06:25:44.242Z,13.00
2019-03-30T06:28:12.703Z,15.27
2019-03-30T06:30:41.151Z,21.73
2019-03-30T06:33:09.661Z,25.70
2019-03-30T06:35:38.106Z,22.73
2019-03-30T06:38:06.552Z,27.67
2019-03-30T06:40:35.029Z,25.00
2019-03-30T06:43:03.484Z,22.50
2019-03-30T06:45:31.952Z,24.90
2019-03-30T06:48:00.442Z,24.43
2019-03-30T06:50:28.912Z,24.30
2019-03-30T06:52:58.790Z,24.43
2019-03-30T06:55:27.597Z,24.12
2019-03-30T06:57:56.390Z,21.53
2019-03-30T07:00:32.725Z,26.33
2019-03-30T07:03:03.989Z,25.50
2019-03-30T07:05:35.498Z,23.20
2019-03-30T07:08:04.427Z,25.80
2019-03-30T07:10:33.261Z,22.27
2019-03-30T07:13:03.647Z,24.37
2019-03-30T07:15:34.507Z,22.40
2019-03-30T07:18:04.644Z,23.67
2019-03-30T07:20:34.216Z,24.07
2019-03-30T07:23:11.735Z,23.45
2019-03-30T07:25:32.820Z,23.50
2019-03-30T07:28:01.304Z,22.77
2019-03-30T07:30:29.788Z,19.80
2019-03-30T07:32:58.234Z,19.75
2019-03-30T07:35:26.780Z,18.80
2019-03-30T07:37:55.221Z,21.55
2019-03-30T07:40:24.195Z,20.45
2019-03-30T07:42:52.656Z,21.73
2019-03-30T07:45:21.104Z,19.27
2019-03-30T07:47:49.601Z,20.82
2019-03-30T07:50:18.457Z,21.52
2019-03-30T07:52:46.909Z,20.50
2019-03-30T07:55:15.609Z,20.50
2019-03-30T07:57:44.048Z,21.60
2019-03-30T08:00:20.639Z,19.23
2019-03-30T08:02:49.177Z,19.20
2019-03-30T08:05:17.617Z,18.80
2019-03-30T08:07:46.078Z,19.80
2019-03-30T08:10:14.748Z,18.85
2019-03-30T08:12:43.196Z,19.12
2019-03-30T08:15:12.073Z,18.65
2019-03-30T08:17:40.777Z,19.20
2019-03-30T08:20:10.169Z,19.30
2019-03-30T08:22:38.895Z,19.00
2019-03-30T08:25:07.824Z,18.48
2019-03-30T08:27:36.266Z,19.60
2019-03-30T08:30:05.745Z,19.92
2019-03-30T08:32:34.373Z,18.53
2019-03-30T08:35:03.006Z,20.85
2019-03-30T08:37:31.524Z,20.43
2019-03-30T08:40:00.074Z,19.52
2019-03-30T08:42:28.632Z,18.62
2019-03-30T08:44:57.082Z,20.20
2019-03-30T08:47:25.599Z,20.72
2019-03-30T08:49:54.158Z,20.00
2019-03-30T08:52:22.855Z,20.48
2019-03-30T08:54:51.474Z,20.90
2019-03-30T08:57:19.910Z,20.45
2019-03-30T08:59:48.407Z,20.30
2019-03-30T09:02:17.320Z,20.80
2019-03-30T09:04:45.872Z,20.65
2019-03-30T09:07:14.333Z,20.88
2019-03-30T09:09:42.795Z,19.37
2019-03-30T09:12:11.288Z,21.15
2019-03-30T09:14:39.812Z,20.62
2019-03-30T09:17:08.387Z,20.57
2019-03-30T09:19:36.833Z,20.55
2019-03-30T09:22:05.341Z,21.23
2019-03-30T09:24:33.868Z,20.90
2019-03-30T09:27:02.400Z,19.80
2019-03-30T09:29:30.854Z,19.15
2019-03-30T09:32:13.303Z,18.45
2019-03-30T09:34:29.617Z,19.37
2019-03-30T09:36:58.080Z,17.37
2019-03-30T09:39:26.957Z,18.25
2019-03-30T09:41:55.449Z,18.17
2019-03-30T09:44:23.919Z,17.57
2019-03-30T09:46:52.473Z,18.77
2019-03-30T09:49:20.924Z,17.45
2019-03-30T09:51:49.668Z,17.00
2019-03-30T09:54:23.878Z,16.40
2019-03-30T09:56:48.292Z,17.80
2019-03-30T09:59:16.769Z,17.92
2019-03-30T10:01:45.222Z,19.25
2019-03-30T10:04:13.775Z,16.95
2019-03-30T10:06:42.311Z,17.85
2019-03-30T10:09:10.839Z,17.45
2019-03-30T10:11:39.335Z,17.15
2019-03-30T10:14:07.785Z,16.55
2019-03-30T10:16:36.306Z,17.45
2019-03-30T10:19:04.828Z,16.95
2019-03-30T10:21:33.281Z,16.77
2019-03-30T10:24:01.809Z,16.73
2019-03-30T10:26:30.345Z,15.35
2019-03-30T10:28:58.802Z,14.28
2019-03-30T10:31:27.343Z,15.38
2019-03-30T10:33:55.793Z,14.63
2019-03-30T10:36:24.253Z,14.23
2019-03-30T10:38:52.741Z,14.45
2019-03-30T10:41:21.197Z,15.10
2019-03-30T10:43:49.685Z,15.40
2019-03-30T10:46:18.198Z,14.98
2019-03-30T10:48:46.757Z,15.72
2019-03-30T10:51:15.209Z,14.25
2019-03-30T10:53:43.713Z,14.58
2019-03-30T10:56:12.161Z,14.10
2019-03-30T10:58:40.612Z,14.65
2019-03-30T11:01:09.140Z,14.68
2019-03-30T11:03:37.583Z,15.60
2019-03-30T11:06:06.038Z,14.63
2019-03-30T11:08:34.517Z,14.47
2019-03-30T11:11:02.974Z,14.63
2019-03-30T11:13:31.748Z,13.65
2019-03-30T11:16:00.270Z,11.60
2019-03-30T11:18:28.718Z,12.28
2019-03-30T11:20:57.233Z,9.60
2019-03-30T11:23:25.761Z,10.10
2019-03-30T11:25:54.602Z,9.68
2019-03-30T11:28:23.175Z,10.88
2019-03-30T11:30:51.616Z,11.10
2019-03-30T11:33:20.101Z,11.55
2019-03-30T11:35:52.020Z,11.48
2019-03-30T11:38:20.483Z,12.00
2019-03-30T11:41:01.379Z,11.40
2019-03-30T11:43:21.011Z,10.53
2019-03-30T11:45:49.476Z,11.45
2019-03-30T11:48:17.926Z,10.75
2019-03-30T11:50:46.414Z,10.65
2019-03-30T11:53:14.907Z,10.88
2019-03-30T11:55:43.357Z,11.25
2019-03-30T11:58:12.141Z,10.72
2019-03-30T12:00:41.655Z,10.75
2019-03-30T12:03:10.174Z,11.10
2019-03-30T12:05:38.697Z,9.80
2019-03-30T12:08:07.140Z,10.58
2019-03-30T12:10:35.599Z,10.78
2019-03-30T12:13:04.315Z,9.98
2019-03-30T12:15:34.325Z,9.70
2019-03-30T12:18:02.768Z,9.33
2019-03-30T12:20:31.276Z,8.95
2019-03-30T12:22:59.729Z,9.10
2019-03-30T12:25:35.599Z,10.35
2019-03-30T12:27:58.417Z,10.00
2019-03-30T12:30:26.879Z,10.43
2019-03-30T12:32:55.396Z,9.53
2019-03-30T12:35:23.900Z,9.60
2019-03-30T12:37:52.355Z,9.33
2019-03-30T12:40:20.880Z,10.82
2019-03-30T12:42:49.468Z,10.15
2019-03-30T12:45:18.088Z,10.85
2019-03-30T12:47:46.543Z,10.70
2019-03-30T12:50:15.283Z,11.60
2019-03-30T12:52:43.735Z,10.78
2019-03-30T12:55:12.422Z,10.78
2019-03-30T12:57:41.275Z,11.28
2019-03-30T13:00:11.065Z,11.93
2019-03-30T13:02:39.517Z,11.08
2019-03-30T13:05:08.345Z,9.80
2019-03-30T13:07:36.795Z,9.35
2019-03-30T13:10:06.895Z,10.58
2019-03-30T13:12:35.547Z,10.63
2019-03-30T13:15:05.988Z,9.58
2019-03-30T13:20:02.147Z,9.38
2019-03-30T13:22:33.493Z,9.65
2019-03-30T13:25:01.989Z,10.28
2019-03-30T13:27:30.454Z,9.90
2019-03-30T13:29:58.909Z,9.48
2019-03-30T13:32:27.423Z,9.63
2019-03-30T13:34:55.869Z,8.50
2019-03-30T13:37:24.329Z,9.43
2019-03-30T13:39:52.995Z,9.95
2019-03-30T13:42:21.444Z,10.48
2019-03-30T13:44:49.900Z,8.98
2019-03-30T13:47:19.217Z,9.65
2019-03-30T13:49:47.661Z,9.90
2019-03-30T13:52:16.122Z,10.10
2019-03-30T13:54:44.651Z,11.20
2019-03-30T13:57:13.098Z,10.75
2019-03-30T13:59:41.545Z,10.00
2019-03-30T14:02:10.242Z,10.00
2019-03-30T14:04:38.776Z,10.65
2019-03-30T14:07:07.296Z,11.97
2019-03-30T14:09:35.791Z,11.35
2019-03-30T14:12:04.261Z,11.28
2019-03-30T14:14:32.812Z,10.85
2019-03-30T14:17:01.283Z,11.38
2019-03-30T14:19:29.809Z,12.50
2019-03-30T14:21:58.288Z,10.85
2019-03-30T14:24:28.430Z,11.60
2019-03-30T14:26:56.977Z,11.57
2019-03-30T14:29:25.424Z,11.90
2019-03-30T14:31:53.943Z,13.38
2019-03-30T14:34:22.395Z,12.78
2019-03-30T14:36:50.845Z,12.40
2019-03-30T14:39:19.563Z,11.10
2019-03-30T14:41:48.023Z,11.15
2019-03-30T14:44:16.472Z,14.23
2019-03-30T14:46:44.981Z,14.03
2019-03-30T14:49:13.424Z,12.90
2019-03-30T14:51:41.881Z,12.93
2019-03-30T14:54:10.451Z,13.10
2019-03-30T14:56:45.452Z,11.48
2019-03-30T14:59:10.610Z,12.40
2019-03-30T15:01:39.334Z,12.82
2019-03-30T15:04:07.863Z,15.45
2019-03-30T15:06:36.577Z,13.93
2019-03-30T15:09:06.669Z,14.28
2019-03-30T15:11:37.923Z,13.25
2019-03-30T15:14:05.342Z,12.35
2019-03-30T15:16:33.800Z,13.72
2019-03-30T15:19:02.806Z,15.40
2019-03-30T15:21:31.356Z,14.85
2019-03-30T15:23:59.812Z,13.58
2019-03-30T15:26:28.264Z,13.50
2019-03-30T15:28:56.764Z,13.88
2019-03-30T15:31:25.282Z,15.50
2019-03-30T15:33:53.793Z,14.55
2019-03-30T15:36:22.235Z,14.58
2019-03-30T15:38:50.683Z,14.38
2019-03-30T15:41:19.193Z,12.88
2019-03-30T15:43:47.720Z,14.80
2019-03-30T15:46:16.169Z,13.88
2019-03-30T15:48:44.672Z,13.35
2019-03-30T15:51:13.134Z,13.48
2019-03-30T15:53:41.581Z,14.75
2019-03-30T15:56:10.242Z,14.65
2019-03-30T15:58:38.690Z,15.95
2019-03-30T16:01:07.508Z,15.00
2019-03-30T16:03:36.045Z,15.60
2019-03-30T16:06:04.505Z,15.20
2019-03-30T16:08:33.056Z,15.13
2019-03-30T16:11:01.500Z,14.90
2019-03-30T16:13:29.981Z,14.80
2019-03-30T16:15:58.465Z,14.83
2019-03-30T16:18:26.908Z,15.68
2019-03-30T16:20:55.431Z,15.98
2019-03-30T16:23:23.872Z,16.37
2019-03-30T16:25:52.389Z,16.15
2019-03-30T16:28:20.869Z,15.53
2019-03-30T16:30:49.669Z,14.58
2019-03-30T16:33:18.227Z,14.20
2019-03-30T16:35:46.686Z,15.55
2019-03-30T16:38:15.174Z,15.58
2019-03-30T16:40:43.631Z,14.40
2019-03-30T16:43:12.109Z,14.40
2019-03-30T16:45:40.571Z,15.53
2019-03-30T16:48:09.289Z,15.88
2019-03-30T16:50:37.755Z,16.27
2019-03-30T16:53:06.211Z,16.07
2019-03-30T16:55:34.730Z,17.48
2019-03-30T16:58:03.181Z,15.45
2019-03-30T17:00:34.824Z,15.78
2019-03-30T17:03:04.179Z,16.95
2019-03-30T17:05:33.525Z,16.12
2019-03-30T17:08:02.066Z,15.48
2019-03-30T17:10:30.877Z,17.90
2019-03-30T17:12:59.328Z,16.55
2019-03-30T17:15:27.773Z,15.98
2019-03-30T17:17:56.270Z,16.62
2019-03-30T17:20:25.123Z,14.18
2019-03-30T17:22:53.725Z,15.68
2019-03-30T17:25:22.201Z,14.00
2019-03-30T17:27:58.281Z,14.68
2019-03-30T17:30:20.865Z,14.90
2019-03-30T17:32:49.359Z,13.05
2019-03-30T17:35:17.805Z,14.15
2019-03-30T17:37:46.274Z,13.90
2019-03-30T17:40:14.975Z,13.20
2019-03-30T17:42:43.424Z,13.40
2019-03-30T17:45:12.096Z,15.72
2019-03-30T17:47:40.636Z,14.23
2019-03-30T17:50:09.693Z,14.83
2019-03-30T17:52:38.195Z,15.88
2019-03-30T17:55:07.282Z,14.43
2019-03-30T17:57:35.743Z,14.93
2019-03-30T18:00:08.043Z,15.43
2019-03-30T18:02:36.746Z,15.23
2019-03-30T18:05:06.012Z,13.95
2019-03-30T18:07:34.492Z,16.20
2019-03-30T18:10:04.003Z,16.62
2019-03-30T18:12:32.548Z,14.40
2019-03-30T18:15:00.997Z,16.93
2019-03-30T18:17:29.523Z,15.32
2019-03-30T18:19:57.961Z,15.90
2019-03-30T18:22:26.417Z,19.45
2019-03-30T18:24:54.913Z,16.82
2019-03-30T18:27:23.469Z,15.93
2019-03-30T18:29:51.927Z,15.72
2019-03-30T18:32:21.043Z,15.85
2019-03-30T18:34:51.029Z,15.70
2019-03-30T18:37:20.145Z,18.12
2019-03-30T18:39:48.793Z,17.82
2019-03-30T18:42:17.325Z,17.42
2019-03-30T18:44:46.409Z,17.00
2019-03-30T18:47:14.868Z,15.05
2019-03-30T18:49:43.345Z,16.85
2019-03-30T18:52:11.813Z,15.75
2019-03-30T18:54:41.867Z,17.07
2019-03-30T18:57:10.404Z,16.77
2019-03-30T18:59:38.860Z,17.42
2019-03-30T19:02:07.372Z,16.42
2019-03-30T19:04:35.815Z,16.27
2019-03-30T19:07:04.268Z,15.50
2019-03-30T19:09:32.780Z,16.35
2019-03-30T19:12:01.236Z,17.00
2019-03-30T19:14:29.705Z,16.95
2019-03-30T19:16:58.213Z,16.95
2019-03-30T19:19:26.664Z,17.05
2019-03-30T19:21:55.110Z,18.52
2019-03-30T19:24:24.257Z,18.15
2019-03-30T19:26:52.709Z,21.50
2019-03-30T19:29:21.217Z,21.07
2019-03-30T19:31:49.656Z,21.82
2019-03-30T19:34:18.121Z,18.40
2019-03-30T19:36:46.609Z,19.40
2019-03-30T19:39:15.321Z,18.90
2019-03-30T19:41:43.832Z,21.50
2019-03-30T19:44:12.293Z,21.60
2019-03-30T19:46:40.744Z,22.75
2019-03-30T19:49:09.253Z,22.85
2019-03-30T19:51:37.702Z,22.37
2019-03-30T19:54:06.149Z,23.52
2019-03-30T19:56:34.641Z,22.62
2019-03-30T19:59:10.550Z,23.25
2019-03-30T20:01:33.487Z,19.45
2019-03-30T20:04:01.993Z,19.80
2019-03-30T20:06:30.586Z,20.37
2019-03-30T20:08:59.025Z,23.07
2019-03-30T20:11:27.542Z,21.07
2019-03-30T20:13:55.986Z,23.57
2019-03-30T20:16:24.446Z,22.20
2019-03-30T20:19:10.687Z,22.27
2019-03-30T20:21:23.104Z,22.95
2019-03-30T20:23:51.552Z,23.00
2019-03-30T20:26:20.051Z,23.40
2019-03-30T20:28:48.511Z,22.90
2019-03-30T20:31:17.416Z,23.62
2019-03-30T20:33:45.940Z,23.60
2019-03-30T20:36:14.386Z,24.15
2019-03-30T20:38:42.898Z,25.32
2019-03-30T20:41:11.687Z,24.43
2019-03-30T20:43:40.192Z,24.30
2019-03-30T20:46:08.653Z,22.75
2019-03-30T20:48:37.212Z,24.77
2019-03-30T20:51:05.656Z,25.48
2019-03-30T20:53:34.190Z,24.32
2019-03-30T20:56:02.637Z,22.50
2019-03-30T20:58:31.087Z,25.00
2019-03-30T21:00:59.737Z,26.17
2019-03-30T21:03:28.177Z,26.75
2019-03-30T21:05:56.681Z,25.25
2019-03-30T21:08:25.156Z,25.10
2019-03-30T21:10:53.618Z,24.72
2019-03-30T21:13:22.288Z,23.65
2019-03-30T21:15:50.733Z,26.80
2019-03-30T21:18:19.177Z,25.17
2019-03-30T21:20:47.673Z,26.90
2019-03-30T21:23:16.115Z,24.87
2019-03-30T21:25:44.565Z,25.05
2019-03-30T21:28:13.057Z,24.72
2019-03-30T21:30:41.509Z,27.07
2019-03-30T21:33:09.948Z,29.60
2019-03-30T21:35:38.424Z,24.70
2019-03-30T21:38:06.864Z,26.12
2019-03-30T21:40:35.323Z,27.15
2019-03-30T21:43:03.824Z,30.48
2019-03-30T21:45:32.282Z,28.98
2019-03-30T21:48:00.735Z,24.85
2019-03-30T21:50:29.217Z,26.85
2019-03-30T21:52:57.654Z,25.57
2019-03-30T21:55:26.297Z,27.15
2019-03-30T21:57:54.753Z,27.13
2019-03-30T22:00:41.533Z,29.12
2019-03-30T22:03:10.147Z,26.68
2019-03-30T22:05:38.639Z,27.30
2019-03-30T22:08:07.141Z,35.15
2019-03-30T22:10:35.626Z,36.40
2019-03-30T22:13:04.456Z,33.70
2019-03-30T22:15:33.053Z,38.38
2019-03-30T22:18:01.598Z,34.00
2019-03-30T22:20:30.093Z,41.05
2019-03-30T22:22:58.550Z,39.15
2019-03-30T22:25:27.076Z,37.88
2019-03-30T22:27:55.548Z,41.90
2019-03-30T22:30:25.436Z,41.30
2019-03-30T22:32:54.085Z,40.67
2019-03-30T22:35:22.553Z,43.58
2019-03-30T22:37:51.085Z,44.73
2019-03-30T22:40:19.758Z,45.90
2019-03-30T22:42:48.225Z,47.23
2019-03-30T22:45:16.668Z,44.77
2019-03-30T22:47:45.177Z,41.15
2019-03-30T22:50:13.857Z,45.45
2019-03-30T22:52:42.314Z,44.93
2019-03-30T22:55:10.967Z,41.23
2019-03-30T22:57:39.463Z,46.98
2019-03-30T23:00:10.454Z,47.73
2019-03-30T23:02:39.324Z,43.83
2019-03-30T23:05:08.205Z,42.53
2019-03-30T23:07:36.680Z,39.33
2019-03-30T23:10:06.961Z,43.15
2019-03-30T23:12:35.456Z,43.60
2019-03-30T23:15:04.445Z,47.05
2019-03-30T23:17:32.885Z,41.05
2019-03-30T23:20:01.379Z,44.03
2019-03-30T23:22:30.133Z,39.90
2019-03-30T23:24:58.577Z,41.77
2019-03-30T23:27:27.046Z,42.17
2019-03-30T23:29:55.588Z,41.90
2019-03-30T23:32:24.047Z,38.95
2019-03-30T23:34:52.775Z,40.70
2019-03-30T23:37:21.234Z,39.65
2019-03-30T23:39:49.669Z,37.23
2019-03-30T23:42:18.431Z,40.40
2019-03-30T23:44:46.864Z,38.23
2019-03-30T23:47:15.309Z,42.48
2019-03-30T23:49:43.784Z,37.00
2019-03-30T23:52:12.247Z,39.13
2019-03-30T23:54:40.729Z,37.58
2019-03-30T23:57:09.164Z,33.67
2019-03-30T23:59:37.645Z,38.95
